createdAt,value
2018-01-15T00:00:10.966Z,31.37
2018-01-15T00:02:40.107Z,34.50
2018-01-15T00:05:08.547Z,30.20
2018-01-15T00:07:36.686Z,35.28
2018-01-15T00:10:05.027Z,36.67
2018-01-15T00:12:33.487Z,36.55
2018-01-15T00:15:02.607Z,36.15
2018-01-15T00:17:30.966Z,37.35
2018-01-15T00:20:00.167Z,38.78
2018-01-15T00:22:33.627Z,35.85
2018-01-15T00:25:01.906Z,33.95
2018-01-15T00:27:30.108Z,34.28
2018-01-15T00:29:59.187Z,33.55
2018-01-15T00:32:28.387Z,39.60
2018-01-15T00:34:56.566Z,37.03
2018-01-15T00:37:25.726Z,42.30
2018-01-15T00:39:54.527Z,38.95
2018-01-15T00:42:23.126Z,33.10
2018-01-15T00:44:52.327Z,34.47
2018-01-15T00:47:21.646Z,39.55
2018-01-15T00:49:49.926Z,35.45
2018-01-15T00:52:18.327Z,35.78
2018-01-15T00:54:46.987Z,35.33
2018-01-15T00:57:15.547Z,38.00
2018-01-15T00:59:43.807Z,35.38
2018-01-15T01:02:12.107Z,35.00
2018-01-15T01:07:16.027Z,37.47
2018-01-15T01:09:44.987Z,37.13
2018-01-15T01:12:13.146Z,39.22
2018-01-15T01:14:41.686Z,33.88
2018-01-15T01:17:09.946Z,34.25
2018-01-15T01:19:38.946Z,37.20
2018-01-15T01:22:08.206Z,33.00
2018-01-15T01:24:36.390Z,38.47
2018-01-15T01:27:04.527Z,36.22
2018-01-15T01:29:32.587Z,36.28
2018-01-15T01:32:00.826Z,36.13
2018-01-15T01:34:29.947Z,36.80
2018-01-15T01:36:58.286Z,39.08
2018-01-15T01:39:26.447Z,34.92
2018-01-15T01:41:54.747Z,33.67
2018-01-15T01:44:24.026Z,40.00
2018-01-15T01:46:52.207Z,41.58
2018-01-15T01:49:20.370Z,37.83
2018-01-15T01:51:48.847Z,38.58
2018-01-15T01:54:17.107Z,40.10
2018-01-15T01:56:45.407Z,36.85
2018-01-15T01:59:13.487Z,35.60
2018-01-15T02:01:42.067Z,36.00
2018-01-15T02:04:10.181Z,35.42
2018-01-15T02:06:38.787Z,36.30
2018-01-15T02:09:07.433Z,39.88
2018-01-15T02:11:35.767Z,42.08
2018-01-15T02:14:04.367Z,40.45
2018-01-15T02:16:32.867Z,38.70
2018-01-15T02:19:01.747Z,42.53
2018-01-15T02:21:30.847Z,36.55
2018-01-15T02:23:59.946Z,36.30
2018-01-15T02:26:28.428Z,38.13
2018-01-15T02:28:57.027Z,38.38
2018-01-15T02:31:25.287Z,35.67
2018-01-15T02:33:53.526Z,36.55
2018-01-15T02:36:22.007Z,39.20
2018-01-15T02:38:50.367Z,35.15
2018-01-15T02:41:18.607Z,34.40
2018-01-15T02:43:47.048Z,34.28
2018-01-15T02:46:15.187Z,35.25
2018-01-15T02:48:43.387Z,36.38
2018-01-15T02:51:11.767Z,33.45
2018-01-15T02:53:39.949Z,33.10
2018-01-15T02:56:08.887Z,33.38
2018-01-15T02:58:37.107Z,35.92
2018-01-15T03:01:05.607Z,31.80
2018-01-15T03:03:34.687Z,32.88
2018-01-15T03:06:03.866Z,32.22
2018-01-15T03:08:32.047Z,31.27
2018-01-15T03:11:00.326Z,32.53
2018-01-15T03:13:28.507Z,36.05
2018-01-15T03:15:57.806Z,30.48
2018-01-15T03:18:26.786Z,30.12
2018-01-15T03:20:54.946Z,34.25
2018-01-15T03:23:23.227Z,30.37
2018-01-15T03:25:51.406Z,32.05
2018-01-15T03:28:19.806Z,27.90
2018-01-15T03:30:49.227Z,28.38
2018-01-15T03:33:17.449Z,29.75
2018-01-15T03:35:45.946Z,31.33
2018-01-15T03:38:15.166Z,34.72
2018-01-15T03:40:43.626Z,30.60
2018-01-15T03:43:12.626Z,30.70
2018-01-15T03:45:41.806Z,31.10
2018-01-15T03:48:10.490Z,26.80
2018-01-15T03:50:39.146Z,28.30
2018-01-15T03:53:07.767Z,28.15
2018-01-15T03:55:35.947Z,29.95
2018-01-15T03:58:05.027Z,31.73
2018-01-15T04:00:33.426Z,30.73
2018-01-15T04:03:02.506Z,26.62
2018-01-15T04:05:30.867Z,26.67
2018-01-15T04:07:59.347Z,27.55
2018-01-15T04:10:27.527Z,27.33
2018-01-15T04:12:56.306Z,29.10
2018-01-15T04:15:24.687Z,27.98
2018-01-15T04:17:52.746Z,27.25
2018-01-15T04:20:20.986Z,27.73
2018-01-15T04:22:49.107Z,30.42
2018-01-15T04:25:17.386Z,26.62
2018-01-15T04:27:45.788Z,30.83
2018-01-15T04:30:14.786Z,22.55
2018-01-15T04:32:43.127Z,31.90
2018-01-15T04:35:11.606Z,27.30
2018-01-15T04:37:39.878Z,33.35
2018-01-15T04:40:08.457Z,34.33
2018-01-15T04:42:36.937Z,30.95
2018-01-15T04:45:05.337Z,29.95
2018-01-15T04:47:34.417Z,28.38
2018-01-15T04:50:03.698Z,28.60
2018-01-15T04:52:32.017Z,29.50
2018-01-15T04:55:00.999Z,25.05
2018-01-15T04:57:30.317Z,25.50
2018-01-15T04:59:58.557Z,35.67
2018-01-15T05:02:26.899Z,28.35
2018-01-15T05:04:55.599Z,30.20
2018-01-15T05:07:24.137Z,27.83
2018-01-15T05:09:52.597Z,26.08
2018-01-15T05:12:21.917Z,26.15
2018-01-15T05:14:50.477Z,28.08
2018-01-15T05:17:18.917Z,28.67
2018-01-15T05:19:47.537Z,29.35
2018-01-15T05:22:15.837Z,31.90
2018-01-15T05:24:45.217Z,32.00
2018-01-15T05:27:13.357Z,41.65
2018-01-15T05:29:41.497Z,31.92
2018-01-15T05:32:09.837Z,29.35
2018-01-15T05:34:39.017Z,30.12
2018-01-15T05:37:07.637Z,29.87
2018-01-15T05:39:36.817Z,26.45
2018-01-15T05:42:06.177Z,28.92
2018-01-15T05:44:34.803Z,23.02
2018-01-15T05:47:04.078Z,30.08
2018-01-15T05:49:32.397Z,24.42
2018-01-15T05:52:00.837Z,25.85
2018-01-15T05:54:28.996Z,22.77
2018-01-15T05:56:57.297Z,23.27
2018-01-15T05:59:25.777Z,23.90
2018-01-15T06:01:53.917Z,25.90
2018-01-15T06:04:22.097Z,24.02
2018-01-15T06:06:50.397Z,27.62
2018-01-15T06:09:18.684Z,25.00
2018-01-15T06:11:47.958Z,23.10
2018-01-15T06:14:16.404Z,25.88
2018-01-15T06:16:44.519Z,26.10
2018-01-15T06:19:12.699Z,30.37
2018-01-15T06:21:41.051Z,24.00
2018-01-15T06:24:09.451Z,30.17
2018-01-15T06:26:37.631Z,27.30
2018-01-15T06:29:06.851Z,32.33
2018-01-15T06:31:36.312Z,28.73
2018-01-15T06:34:04.791Z,33.78
2018-01-15T06:36:33.112Z,29.92
2018-01-15T06:39:01.212Z,45.10
2018-01-15T06:41:29.733Z,27.23
2018-01-15T06:43:57.892Z,27.33
2018-01-15T06:46:26.072Z,31.12
2018-01-15T06:48:55.480Z,28.60
2018-01-15T06:51:23.651Z,24.63
2018-01-15T06:53:52.733Z,23.02
2018-01-15T06:56:21.311Z,26.58
2018-01-15T06:58:49.492Z,27.50
2018-01-15T07:01:17.792Z,25.73
2018-01-15T07:03:46.872Z,26.52
2018-01-15T07:06:14.932Z,25.55
2018-01-15T07:08:43.312Z,25.00
2018-01-15T07:11:11.872Z,23.12
2018-01-15T07:13:41.271Z,29.55
2018-01-15T07:16:10.112Z,26.50
2018-01-15T07:18:39.672Z,26.70
2018-01-15T07:21:08.065Z,25.50
2018-01-15T07:23:36.530Z,26.00
2018-01-15T07:26:05.231Z,23.40
2018-01-15T07:28:33.392Z,27.55
2018-01-15T07:31:01.890Z,21.70
2018-01-15T07:33:30.350Z,22.17
2018-01-15T07:35:58.535Z,23.20
2018-01-15T07:38:26.690Z,40.63
2018-01-15T07:40:54.990Z,24.87
2018-01-15T07:43:23.271Z,25.92
2018-01-15T07:45:51.432Z,26.85
2018-01-15T07:48:19.716Z,28.05
2018-01-15T07:50:48.296Z,25.52
2018-01-15T07:53:17.197Z,26.65
2018-01-15T07:55:46.416Z,25.77
2018-01-15T07:58:14.676Z,32.42
2018-01-15T08:00:44.176Z,29.10
2018-01-15T08:03:13.596Z,29.95
2018-01-15T08:05:42.644Z,20.45
2018-01-15T08:08:10.943Z,24.92
2018-01-15T08:10:39.103Z,24.80
2018-01-15T08:13:07.243Z,25.30
2018-01-15T08:15:35.446Z,21.42
2018-01-15T08:18:03.763Z,21.27
2018-01-15T08:20:32.163Z,29.63
2018-01-15T08:23:00.496Z,34.00
2018-01-15T08:25:29.496Z,28.75
2018-01-15T08:27:58.636Z,26.33
2018-01-15T08:30:26.897Z,20.90
2018-01-15T08:32:55.738Z,28.73
2018-01-15T08:35:25.476Z,19.30
2018-01-15T08:37:53.716Z,22.20
2018-01-15T08:40:22.996Z,21.25
2018-01-15T08:42:51.256Z,25.65
2018-01-15T08:45:19.456Z,20.60
2018-01-15T08:47:49.397Z,20.83
2018-01-15T08:50:18.376Z,26.30
2018-01-15T08:52:46.757Z,27.37
2018-01-15T08:55:14.909Z,22.50
2018-01-15T08:57:43.310Z,24.80
2018-01-15T09:00:12.310Z,29.40
2018-01-15T09:02:41.393Z,19.65
2018-01-15T09:05:10.593Z,25.70
2018-01-15T09:07:38.861Z,21.17
2018-01-15T09:10:07.441Z,20.88
2018-01-15T09:12:36.841Z,21.90
2018-01-15T09:15:05.100Z,17.42
2018-01-15T09:17:33.608Z,21.67
2018-01-15T09:20:02.700Z,18.05
2018-01-15T09:22:31.181Z,51.00
2018-01-15T09:24:59.600Z,18.02
2018-01-15T09:27:27.940Z,17.48
2018-01-15T09:29:57.080Z,20.52
2018-01-15T09:32:25.501Z,22.48
2018-01-15T09:34:53.900Z,23.48
2018-01-15T09:37:23.083Z,23.87
2018-01-15T09:39:51.363Z,19.80
2018-01-15T09:42:20.643Z,15.35
2018-01-15T09:44:49.124Z,15.00
2018-01-15T09:47:17.703Z,20.77
2018-01-15T09:49:46.123Z,14.48
2018-01-15T09:52:14.263Z,13.25
2018-01-15T09:54:42.543Z,19.48
2018-01-15T09:57:10.803Z,21.02
2018-01-15T09:59:39.203Z,16.42
2018-01-15T10:02:08.243Z,20.52
2018-01-15T10:04:36.463Z,16.85
2018-01-15T10:07:05.302Z,20.27
2018-01-15T10:09:33.943Z,20.70
2018-01-15T10:12:03.123Z,18.95
2018-01-15T10:14:31.823Z,26.23
2018-01-15T10:17:00.291Z,15.07
2018-01-15T10:19:28.692Z,17.95
2018-01-15T10:21:57.469Z,25.08
2018-01-15T10:24:26.641Z,12.05
2018-01-15T10:26:54.981Z,21.23
2018-01-15T10:29:24.940Z,9.20
2018-01-15T10:31:53.221Z,15.07
2018-01-15T10:34:23.060Z,8.57
2018-01-15T10:36:52.259Z,11.20
2018-01-15T10:39:21.318Z,12.05
2018-01-15T10:41:49.499Z,11.20
2018-01-15T10:44:17.742Z,8.90
2018-01-15T10:46:46.041Z,7.32
2018-01-15T10:49:14.221Z,10.50
2018-01-15T10:51:42.734Z,6.30
2018-01-15T10:54:10.773Z,8.93
2018-01-15T10:56:39.053Z,8.43
2018-01-15T10:59:07.353Z,5.45
2018-01-15T11:01:36.265Z,6.60
2018-01-15T11:04:04.585Z,6.32
2018-01-15T11:06:32.724Z,5.28
2018-01-15T11:09:00.724Z,11.90
2018-01-15T11:11:28.986Z,6.32
2018-01-15T11:13:57.164Z,13.35
2018-01-15T11:16:25.244Z,5.50
2018-01-15T11:18:53.525Z,9.90
2018-01-15T11:21:21.685Z,6.18
2018-01-15T11:23:49.766Z,7.55
2018-01-15T11:26:18.044Z,7.60
2018-01-15T11:28:46.569Z,8.48
2018-01-15T11:31:14.889Z,4.90
2018-01-15T11:33:42.969Z,6.35
2018-01-15T11:36:11.449Z,5.65
2018-01-15T11:38:39.729Z,11.95
2018-01-15T11:41:07.909Z,18.73
2018-01-15T11:43:36.189Z,25.27
2018-01-15T11:46:05.249Z,29.77
2018-01-15T11:48:33.560Z,40.20
2018-01-15T11:51:02.411Z,33.22
2018-01-15T11:53:30.869Z,33.30
2018-01-15T11:55:59.009Z,32.67
2018-01-15T11:58:28.209Z,32.15
2018-01-15T12:00:57.349Z,36.83
2018-01-15T12:03:25.749Z,39.33
2018-01-15T12:05:54.030Z,35.17
2018-01-15T12:08:22.191Z,37.78
2018-01-15T12:10:50.689Z,36.58
2018-01-15T12:13:18.869Z,36.65
2018-01-15T12:15:48.150Z,37.20
2018-01-15T12:18:16.231Z,39.30
2018-01-15T12:20:44.938Z,31.05
2018-01-15T12:23:13.210Z,38.97
2018-01-15T12:25:42.472Z,32.95
2018-01-15T12:28:10.933Z,36.22
2018-01-15T12:30:40.391Z,48.97
2018-01-15T12:33:09.811Z,34.40
2018-01-15T12:35:38.452Z,44.65
2018-01-15T12:38:07.251Z,38.88
2018-01-15T12:40:37.112Z,39.22
2018-01-15T12:43:05.732Z,38.60
2018-01-15T12:45:34.353Z,42.17
2018-01-15T12:48:03.591Z,37.38
2018-01-15T12:50:32.059Z,39.25
2018-01-15T12:53:00.611Z,39.75
2018-01-15T12:55:29.885Z,33.95
2018-01-15T12:57:57.966Z,41.63
2018-01-15T13:00:26.945Z,44.00
2018-01-15T13:02:55.227Z,39.08
2018-01-15T13:05:35.065Z,34.78
2018-01-15T13:08:22.286Z,36.60
2018-01-15T13:10:50.786Z,40.53
2018-01-15T13:13:19.866Z,34.22
2018-01-15T13:15:48.206Z,39.17
2018-01-15T13:18:16.925Z,31.87
2018-01-15T13:20:45.506Z,32.67
2018-01-15T13:23:13.786Z,36.90
2018-01-15T13:25:42.126Z,37.28
2018-01-15T13:28:10.746Z,36.83
2018-01-15T13:30:39.266Z,38.58
2018-01-15T13:33:07.806Z,42.65
2018-01-15T13:35:36.066Z,39.40
2018-01-15T13:38:04.353Z,42.75
2018-01-15T13:40:32.846Z,46.25
2018-01-15T13:43:02.107Z,37.38
2018-01-15T13:45:30.535Z,42.67
2018-01-15T13:48:00.035Z,35.20
2018-01-15T13:50:29.332Z,38.30
2018-01-15T13:52:58.893Z,40.63
2018-01-15T13:55:26.972Z,35.78
2018-01-15T13:57:55.192Z,37.03
2018-01-15T14:00:23.832Z,37.25
2018-01-15T14:02:52.330Z,37.90
2018-01-15T14:05:20.730Z,39.83
2018-01-15T14:07:49.991Z,38.35
2018-01-15T14:10:18.432Z,37.70
2018-01-15T14:12:46.771Z,34.17
2018-01-15T14:15:15.898Z,39.72
2018-01-15T14:17:44.451Z,35.03
2018-01-15T14:20:13.252Z,36.15
2018-01-15T14:22:42.512Z,34.92
2018-01-15T14:25:11.011Z,40.38
2018-01-15T14:27:39.271Z,39.60
2018-01-15T14:30:07.551Z,36.60
2018-01-15T14:32:36.051Z,39.20
2018-01-15T14:35:05.232Z,40.15
2018-01-15T14:37:33.710Z,36.30
2018-01-15T14:40:02.291Z,48.60
2018-01-15T14:42:30.491Z,33.92
2018-01-15T14:44:59.691Z,36.65
2018-01-15T14:47:28.791Z,39.05
2018-01-15T14:49:57.852Z,43.20
2018-01-15T14:52:26.131Z,32.90
2018-01-15T14:54:54.411Z,39.50
2018-01-15T14:57:22.671Z,35.20
2018-01-15T14:59:51.152Z,37.45
2018-01-15T15:02:19.532Z,37.40
2018-01-15T15:04:47.951Z,39.58
2018-01-15T15:07:16.611Z,41.30
2018-01-15T15:09:46.771Z,36.72
2018-01-15T15:12:14.811Z,39.08
2018-01-15T15:14:44.213Z,37.72
2018-01-15T15:17:13.611Z,42.33
2018-01-15T15:19:43.032Z,41.13
2018-01-15T15:22:11.531Z,35.00
2018-01-15T15:24:39.911Z,42.25
2018-01-15T15:27:08.667Z,41.22
2018-01-15T15:29:37.638Z,39.65
2018-01-15T15:32:06.058Z,44.95
2018-01-15T15:34:34.258Z,46.80
2018-01-15T15:37:02.779Z,42.15
2018-01-15T15:39:32.787Z,36.28
2018-01-15T15:42:01.978Z,40.42
2018-01-15T15:44:30.160Z,36.97
2018-01-15T15:46:58.399Z,40.63
2018-01-15T15:49:27.418Z,36.05
2018-01-15T15:51:55.719Z,41.20
2018-01-15T15:54:24.898Z,40.53
2018-01-15T15:56:53.397Z,37.83
2018-01-15T15:59:22.758Z,36.60
2018-01-15T16:01:51.118Z,36.95
2018-01-15T16:04:19.739Z,37.38
2018-01-15T16:06:48.338Z,42.20
2018-01-15T16:09:17.739Z,42.15
2018-01-15T16:11:46.978Z,40.17
2018-01-15T16:14:15.400Z,44.03
2018-01-15T16:16:43.899Z,43.05
2018-01-15T16:19:13.011Z,41.25
2018-01-15T16:21:41.679Z,38.78
2018-01-15T16:24:11.159Z,40.33
2018-01-15T16:26:39.319Z,33.67
2018-01-15T16:29:07.599Z,38.17
2018-01-15T16:31:35.979Z,35.38
2018-01-15T16:34:04.359Z,38.15
2018-01-15T16:36:34.479Z,36.83
2018-01-15T16:39:02.859Z,41.28
2018-01-15T16:41:31.139Z,46.65
2018-01-15T16:43:59.419Z,42.95
2018-01-15T16:46:27.800Z,41.55
2018-01-15T16:48:56.360Z,39.42
2018-01-15T16:51:24.796Z,44.70
2018-01-15T16:53:53.287Z,40.05
2018-01-15T16:56:21.830Z,38.58
2018-01-15T16:58:50.899Z,40.30
2018-01-15T17:01:19.630Z,37.45
2018-01-15T17:03:47.787Z,37.33
2018-01-15T17:06:17.059Z,38.97
2018-01-15T17:08:45.440Z,42.47
2018-01-15T17:11:14.139Z,45.85
2018-01-15T17:13:42.501Z,46.28
2018-01-15T17:16:10.959Z,40.65
2018-01-15T17:18:39.598Z,42.75
2018-01-15T17:21:08.699Z,42.30
2018-01-15T17:23:37.219Z,37.40
2018-01-15T17:26:05.738Z,41.00
2018-01-15T17:28:35.198Z,48.60
2018-01-15T17:31:03.758Z,45.33
2018-01-15T17:33:31.959Z,47.20
2018-01-15T17:36:00.579Z,45.35
2018-01-15T17:38:29.799Z,44.38
2018-01-15T17:40:58.459Z,40.90
2018-01-15T17:43:26.820Z,39.53
2018-01-15T17:45:55.499Z,36.80
2018-01-15T17:48:23.879Z,32.53
2018-01-15T17:50:52.159Z,35.53
2018-01-15T17:53:21.047Z,36.75
2018-01-15T17:55:49.339Z,36.35
2018-01-15T17:58:17.579Z,40.70
2018-01-15T18:00:45.879Z,42.25
2018-01-15T18:03:15.059Z,35.05
2018-01-15T18:05:43.559Z,33.03
2018-01-15T18:08:12.119Z,36.80
2018-01-15T18:10:40.339Z,39.10
2018-01-15T18:13:09.539Z,39.83
2018-01-15T18:15:38.648Z,39.55
2018-01-15T18:18:07.081Z,42.83
2018-01-15T18:20:35.260Z,35.28
2018-01-15T18:23:03.839Z,43.92
2018-01-15T18:25:32.022Z,37.60
2018-01-15T18:28:00.300Z,37.40
2018-01-15T18:30:29.720Z,35.05
2018-01-15T18:32:58.327Z,40.63
2018-01-15T18:35:26.858Z,41.03
2018-01-15T18:37:55.460Z,38.55
2018-01-15T18:40:25.079Z,53.53
2018-01-15T18:42:53.218Z,31.05
2018-01-15T18:45:21.800Z,26.27
2018-01-15T18:47:50.099Z,40.75
2018-01-15T18:50:19.559Z,32.70
2018-01-15T18:52:48.360Z,28.83
2018-01-15T18:55:16.919Z,26.55
2018-01-15T18:57:45.441Z,38.95
2018-01-15T19:00:14.739Z,36.35
2018-01-15T19:02:43.319Z,35.30
2018-01-15T19:05:11.600Z,34.28
2018-01-15T19:07:40.898Z,34.97
2018-01-15T19:10:10.060Z,31.83
2018-01-15T19:12:38.339Z,35.67
2018-01-15T19:15:06.640Z,34.20
2018-01-15T19:17:35.899Z,28.48
2018-01-15T19:20:04.199Z,27.17
2018-01-15T19:22:32.600Z,26.75
2018-01-15T19:25:01.950Z,26.65
2018-01-15T19:27:30.521Z,27.55
2018-01-15T19:29:58.880Z,26.80
2018-01-15T19:32:27.419Z,25.08
2018-01-15T19:35:12.500Z,28.15
2018-01-15T19:37:56.348Z,22.80
2018-01-15T19:40:25.440Z,24.90
2018-01-15T19:42:53.798Z,22.25
2018-01-15T19:45:42.360Z,27.02
2018-01-15T19:48:16.178Z,25.58
2018-01-15T19:50:51.100Z,30.52
2018-01-15T19:53:25.782Z,28.48
2018-01-15T19:56:00.119Z,25.25
2018-01-15T19:58:34.167Z,25.83
2018-01-15T20:01:08.779Z,27.30
2018-01-15T20:03:42.779Z,24.75
2018-01-15T20:06:16.959Z,21.65
2018-01-15T20:08:51.119Z,28.58
2018-01-15T20:11:20.325Z,25.12
2018-01-15T20:13:49.940Z,32.00
2018-01-15T20:16:19.101Z,32.88
2018-01-15T20:18:47.699Z,29.75
2018-01-15T20:21:15.959Z,43.50
2018-01-15T20:23:44.339Z,40.08
2018-01-15T20:26:12.821Z,38.50
2018-01-15T20:28:41.299Z,42.95
2018-01-15T20:31:09.359Z,35.92
2018-01-15T20:33:37.959Z,39.40
2018-01-15T20:36:06.240Z,37.92
2018-01-15T20:38:34.639Z,43.90
2018-01-15T20:41:03.839Z,40.92
2018-01-15T20:43:33.000Z,43.92
2018-01-15T20:46:01.299Z,29.92
2018-01-15T20:48:30.598Z,28.75
2018-01-15T20:50:59.479Z,26.50
2018-01-15T20:53:28.460Z,21.67
2018-01-15T20:55:56.958Z,28.40
2018-01-15T20:58:26.363Z,25.50
2018-01-15T21:00:55.679Z,20.73
2018-01-15T21:03:24.244Z,25.65
2018-01-15T21:05:53.582Z,29.35
2018-01-15T21:08:22.940Z,26.00
2018-01-15T21:10:52.239Z,25.98
2018-01-15T21:13:21.520Z,29.30
2018-01-15T21:15:50.019Z,27.77
2018-01-15T21:18:19.519Z,28.73
2018-01-15T21:20:47.820Z,21.73
2018-01-15T21:23:16.379Z,27.65
2018-01-15T21:25:45.680Z,24.15
2018-01-15T21:28:14.859Z,19.77
2018-01-15T21:30:43.559Z,19.62
2018-01-15T21:33:12.778Z,13.30
2018-01-15T21:35:41.339Z,14.57
2018-01-15T21:38:10.479Z,9.23
2018-01-15T21:40:38.880Z,8.68
2018-01-15T21:43:07.060Z,10.75
2018-01-15T21:45:35.140Z,10.02
2018-01-15T21:48:03.839Z,9.27
2018-01-15T21:50:31.999Z,9.85
2018-01-15T21:53:00.281Z,10.50
2018-01-15T21:55:28.659Z,11.30
2018-01-15T21:57:56.839Z,12.23
2018-01-15T22:00:25.100Z,13.07
2018-01-15T22:02:53.480Z,10.80
2018-01-15T22:05:22.679Z,13.95
2018-01-15T22:07:50.759Z,18.92
2018-01-15T22:10:19.219Z,10.52
2018-01-15T22:12:47.618Z,13.32
2018-01-15T22:15:16.501Z,10.35
2018-01-15T22:17:44.881Z,11.40
2018-01-15T22:20:12.916Z,13.45
2018-01-15T22:22:41.321Z,16.83
2018-01-15T22:25:09.583Z,11.52
2018-01-15T22:27:37.994Z,12.40
2018-01-15T22:30:07.074Z,11.05
2018-01-15T22:32:35.354Z,17.50
2018-01-15T22:35:03.318Z,13.55
2018-01-15T22:37:31.594Z,13.82
2018-01-15T22:40:00.053Z,17.23
2018-01-15T22:42:28.892Z,13.20
2018-01-15T22:44:57.291Z,14.75
2018-01-15T22:47:25.857Z,16.67
2018-01-15T22:49:54.151Z,13.65
2018-01-15T22:52:22.593Z,12.48
2018-01-15T22:54:51.676Z,14.18
2018-01-15T22:57:19.812Z,14.73
2018-01-15T22:59:48.040Z,15.45
2018-01-15T23:02:17.112Z,24.35
2018-01-15T23:04:46.511Z,14.82
2018-01-15T23:07:14.893Z,13.77
2018-01-15T23:09:43.272Z,8.90
2018-01-15T23:12:11.652Z,8.55
2018-01-15T23:14:39.912Z,12.45
2018-01-15T23:17:08.413Z,10.50
2018-01-15T23:19:37.632Z,18.08
2018-01-15T23:22:06.092Z,12.00
2018-01-15T23:24:35.192Z,11.73
2018-01-15T23:27:04.371Z,11.65
2018-01-15T23:29:32.551Z,13.13
2018-01-15T23:32:00.813Z,8.73
2018-01-15T23:34:29.094Z,7.32
2018-01-15T23:36:57.351Z,5.45
2018-01-15T23:39:25.852Z,4.85
2018-01-15T23:41:54.032Z,4.60
2018-01-15T23:44:23.312Z,3.83
2018-01-15T23:46:51.812Z,5.12
2018-01-15T23:49:20.392Z,4.80
2018-01-15T23:51:48.752Z,4.60
2018-01-15T23:54:29.132Z,4.35
2018-01-15T23:56:58.452Z,4.47
2018-01-15T23:59:27.791Z,7.37
